Time;durP1;ratioP1;P1;durP2;ratioP2;P2;SDS_P1;SDS_P2;PMS_P1;PMS_P2;Temp;Humidity;BMP_temperature;BMP_pressure;BME280_temperature;BME280_humidity;BME280_pressure;Samples;Min_cycle;Max_cycle;Signal;HPM_P1;HPM_P2
2022/03/29 00:00:01;;;;;;;4.78;3.05;;;27.00;28.80;;;;;;5070676;28;20090;-57
2022/03/29 00:02:29;;;;;;;3.88;3.28;;;27.00;28.90;;;;;;5069972;28;20122;-54
2022/03/29 00:04:59;;;;;;;3.70;2.95;;;27.00;29.00;;;;;;5076749;28;20048;-58
2022/03/29 00:07:27;;;;;;;4.38;2.72;;;27.00;29.10;;;;;;5071050;28;20865;-55
2022/03/29 00:09:54;;;;;;;4.50;3.58;;;27.00;29.10;;;;;;5071927;28;20165;-54
2022/03/29 00:12:23;;;;;;;3.60;3.03;;;27.00;29.10;;;;;;5074866;28;20067;-56
2022/03/29 00:14:50;;;;;;;5.57;3.33;;;27.00;29.20;;;;;;5065703;28;20048;-61
2022/03/29 00:17:17;;;;;;;5.15;3.17;;;27.10;29.30;;;;;;5067814;28;20141;-57
2022/03/29 00:19:45;;;;;;;4.40;3.13;;;27.10;29.30;;;;;;5068739;28;20048;-56
2022/03/29 00:22:12;;;;;;;5.93;3.10;;;27.10;29.40;;;;;;5071237;28;20067;-57
2022/03/29 00:24:40;;;;;;;3.78;3.40;;;27.10;29.40;;;;;;5074138;28;20048;-52
2022/03/29 00:27:07;;;;;;;3.85;2.78;;;27.10;29.40;;;;;;5072300;28;20369;-50
2022/03/29 00:29:37;;;;;;;5.32;3.92;;;27.10;29.50;;;;;;5077292;28;20031;-55
2022/03/29 00:32:05;;;;;;;4.03;2.88;;;27.10;29.50;;;;;;5078604;28;20044;-58
2022/03/29 00:34:34;;;;;;;3.40;2.63;;;27.10;29.50;;;;;;5069572;28;20475;-57
2022/03/29 00:37:01;;;;;;;2.67;2.13;;;27.10;29.60;;;;;;5070582;28;20492;-55
2022/03/29 00:39:28;;;;;;;3.85;3.47;;;27.10;29.60;;;;;;5072531;28;20056;-56
2022/03/29 00:41:56;;;;;;;4.35;2.58;;;27.10;29.60;;;;;;5077055;28;20048;-57
2022/03/29 00:44:29;;;;;;;6.25;3.60;;;27.20;29.70;;;;;;5073966;28;20521;-54
2022/03/29 00:46:59;;;;;;;4.20;3.85;;;27.10;29.70;;;;;;5071821;28;20041;-54
2022/03/29 00:49:26;;;;;;;5.30;3.78;;;27.20;29.70;;;;;;5075648;28;20032;-56
2022/03/29 00:51:55;;;;;;;6.07;3.45;;;27.20;29.70;;;;;;5070500;28;20474;-54
2022/03/29 00:54:23;;;;;;;4.15;2.80;;;27.20;29.70;;;;;;5069044;28;20044;-57
2022/03/29 00:56:51;;;;;;;5.63;3.55;;;27.20;29.70;;;;;;5071506;28;20055;-56
2022/03/29 00:59:18;;;;;;;6.53;4.70;;;27.20;30.20;;;;;;5068882;28;20828;-55
2022/03/29 01:01:45;;;;;;;4.15;2.95;;;27.20;29.80;;;;;;5078519;28;20101;-56
2022/03/29 01:04:14;;;;;;;7.60;3.90;;;27.20;29.80;;;;;;5063520;28;20079;-57
2022/03/29 01:06:43;;;;;;;5.00;3.65;;;27.20;30.20;;;;;;5073226;28;20106;-56
2022/03/29 01:09:10;;;;;;;10.80;3.97;;;27.20;29.70;;;;;;5068593;28;20051;-57
2022/03/29 01:11:39;;;;;;;7.97;3.20;;;27.20;29.70;;;;;;5066019;28;20529;-57
2022/03/29 01:14:06;;;;;;;4.13;3.72;;;27.20;29.70;;;;;;5076412;28;20036;-57
2022/03/29 01:19:22;;;;;;;5.50;3.90;;;27.20;29.70;;;;;;5063324;28;20036;-56
2022/03/29 01:21:57;;;;;;;6.95;3.42;;;27.20;29.80;;;;;;5071480;28;20082;-55
2022/03/29 01:24:25;;;;;;;5.72;2.90;;;27.20;29.80;;;;;;5071994;28;20579;-56
2022/03/29 01:26:53;;;;;;;8.18;4.55;;;27.20;29.90;;;;;;5067093;28;20523;-56
2022/03/29 01:29:21;;;;;;;5.72;3.35;;;27.20;29.90;;;;;;5069545;28;20119;-55
2022/03/29 01:31:49;;;;;;;8.60;4.47;;;27.20;30.00;;;;;;5073485;28;20389;-56
2022/03/29 01:34:17;;;;;;;8.55;3.38;;;27.10;30.10;;;;;;5065439;28;20115;-55
2022/03/29 01:36:44;;;;;;;5.05;3.35;;;27.10;30.90;;;;;;5071238;28;20151;-54
2022/03/29 01:39:14;;;;;;;6.15;3.95;;;27.10;30.40;;;;;;5081560;28;20524;-54
2022/03/29 01:41:41;;;;;;;5.60;3.65;;;27.00;30.50;;;;;;5079578;28;20044;-53
2022/03/29 01:44:08;;;;;;;5.18;3.75;;;26.90;30.90;;;;;;5081100;28;20036;-54
2022/03/29 01:46:35;;;;;;;7.07;3.90;;;26.90;30.40;;;;;;5078147;28;20052;-52
2022/03/29 01:49:04;;;;;;;4.95;2.97;;;26.80;30.40;;;;;;5078061;28;20040;-56
2022/03/29 01:51:31;;;;;;;7.80;5.05;;;26.80;30.40;;;;;;5079907;28;20497;-55
2022/03/29 01:54:02;;;;;;;11.90;3.97;;;26.70;30.30;;;;;;5073558;28;20497;-52
2022/03/29 01:56:32;;;;;;;5.18;3.85;;;26.70;30.50;;;;;;5075717;28;20113;-56
2022/03/29 01:59:04;;;;;;;10.52;2.67;;;26.60;30.50;;;;;;5073057;28;20043;-53
2022/03/29 02:01:32;;;;;;;8.63;3.03;;;26.50;30.60;;;;;;5074538;28;20605;-56
2022/03/29 02:03:59;;;;;;;9.60;3.65;;;26.50;30.60;;;;;;5067829;28;20121;-52
2022/03/29 02:06:26;;;;;;;3.83;3.03;;;26.50;31.20;;;;;;5074960;28;20048;-54
2022/03/29 02:08:53;;;;;;;6.18;3.97;;;26.40;30.60;;;;;;5070641;28;20044;-49
2022/03/29 02:11:21;;;;;;;7.20;3.17;;;26.40;30.60;;;;;;5067877;28;20051;-53
2022/03/29 02:13:50;;;;;;;5.43;3.78;;;26.40;30.60;;;;;;5075035;28;20040;-51
2022/03/29 02:16:17;;;;;;;7.82;4.35;;;26.30;30.60;;;;;;5065665;28;20060;-55
2022/03/29 02:18:45;;;;;;;7.50;3.78;;;26.30;30.70;;;;;;5077289;28;20555;-52
2022/03/29 02:21:14;;;;;;;7.38;3.63;;;26.20;30.60;;;;;;5075559;28;20046;-52
2022/03/29 02:23:42;;;;;;;12.02;3.92;;;26.20;30.80;;;;;;5079090;28;20075;-53
2022/03/29 02:26:09;;;;;;;15.40;4.15;;;26.20;30.90;;;;;;5081279;28;20102;-52
2022/03/29 02:28:36;;;;;;;9.95;4.43;;;26.10;31.00;;;;;;5077959;28;20051;-51
2022/03/29 02:31:05;;;;;;;9.20;4.35;;;26.10;31.00;;;;;;5070763;28;20125;-50
2022/03/29 02:33:32;;;;;;;8.05;4.22;;;26.00;31.10;;;;;;5075879;28;20098;-50
2022/03/29 02:36:00;;;;;;;12.60;3.00;;;26.00;31.30;;;;;;5078983;28;20031;-58
2022/03/29 02:38:27;;;;;;;6.93;3.65;;;25.90;31.50;;;;;;5075553;28;20055;-57
2022/03/29 02:40:57;;;;;;;6.90;2.53;;;25.90;31.80;;;;;;5082673;28;20454;-57
2022/03/29 02:43:25;;;;;;;8.27;2.90;;;25.90;32.10;;;;;;5076808;28;20061;-57
2022/03/29 02:45:53;;;;;;;10.60;2.80;;;25.90;32.30;;;;;;5080796;28;20035;-56
2022/03/29 02:48:21;;;;;;;7.18;2.45;;;25.80;32.30;;;;;;5079568;28;20044;-55
2022/03/29 02:50:49;;;;;;;9.23;3.25;;;25.80;32.50;;;;;;5078029;28;20138;-58
2022/03/29 02:53:16;;;;;;;9.75;3.15;;;25.80;32.60;;;;;;5082747;28;20595;-57
2022/03/29 02:55:43;;;;;;;5.30;2.50;;;25.80;32.70;;;;;;5083937;28;20044;-56
2022/03/29 02:58:11;;;;;;;5.28;2.95;;;25.70;32.80;;;;;;5080477;28;20715;-58
2022/03/29 03:00:39;;;;;;;32.08;4.07;;;25.70;32.80;;;;;;5088961;28;20059;-59
2022/03/29 03:03:06;;;;;;;7.10;3.38;;;25.70;33.10;;;;;;5083202;28;20139;-60
2022/03/29 03:05:35;;;;;;;9.48;3.58;;;25.70;33.40;;;;;;5084229;28;20536;-55
2022/03/29 03:08:03;;;;;;;6.05;2.85;;;25.60;33.40;;;;;;5078054;28;20834;-58
2022/03/29 03:10:31;;;;;;;7.90;2.30;;;25.60;33.60;;;;;;5081229;28;20416;-57
2022/03/29 03:12:58;;;;;;;5.85;1.50;;;25.50;33.50;;;;;;5079155;28;20041;-55
2022/03/29 03:15:26;;;;;;;3.25;2.28;;;25.50;33.60;;;;;;5085937;28;20139;-57
2022/03/29 03:17:54;;;;;;;4.85;2.28;;;25.50;33.60;;;;;;5076304;28;20629;-57
2022/03/29 03:20:22;;;;;;;4.43;2.78;;;25.50;34.20;;;;;;5080453;28;20043;-59
2022/03/29 03:22:51;;;;;;;3.47;2.20;;;25.40;33.70;;;;;;5084012;28;20105;-60
2022/03/29 03:25:18;;;;;;;4.25;3.10;;;25.40;33.60;;;;;;5084165;28;20039;-58
2022/03/29 03:27:46;;;;;;;5.28;2.65;;;25.40;33.80;;;;;;5072409;28;20528;-59
2022/03/29 03:30:16;;;;;;;4.85;2.28;;;25.30;33.70;;;;;;5080395;28;20040;-58
2022/03/29 03:32:43;;;;;;;5.28;2.67;;;25.30;33.80;;;;;;5071823;28;20063;-58
2022/03/29 03:35:12;;;;;;;5.72;2.83;;;25.30;33.90;;;;;;5074399;28;20043;-55
2022/03/29 03:37:39;;;;;;;4.22;2.65;;;25.30;33.70;;;;;;5071822;28;20097;-56
2022/03/29 03:40:10;;;;;;;3.72;2.67;;;25.30;33.50;;;;;;5072837;28;20041;-49
2022/03/29 03:42:38;;;;;;;3.25;2.42;;;25.30;33.50;;;;;;5084358;28;20043;-57
2022/03/29 03:45:07;;;;;;;26.13;5.97;;;25.20;33.40;;;;;;5077318;28;20040;-54
2022/03/29 03:47:34;;;;;;;10.73;4.57;;;25.20;36.50;;;;;;5076830;28;20158;-52
2022/03/29 03:50:02;;;;;;;13.70;4.75;;;25.20;38.20;;;;;;5081883;28;20072;-55
2022/03/29 03:52:29;;;;;;;9.77;5.57;;;25.20;38.70;;;;;;5079887;28;20055;-54
2022/03/29 03:54:56;;;;;;;10.50;4.28;;;25.20;38.70;;;;;;5084503;28;20559;-55
2022/03/29 03:57:25;;;;;;;10.07;3.58;;;25.20;38.80;;;;;;5084335;28;20537;-55
2022/03/29 03:59:55;;;;;;;9.60;3.70;;;25.20;39.10;;;;;;5079446;28;20028;-54
2022/03/29 04:02:22;;;;;;;8.20;4.30;;;25.10;39.20;;;;;;5075088;28;20049;-55
2022/03/29 04:04:49;;;;;;;12.10;3.00;;;25.20;39.10;;;;;;5079979;28;20040;-53
2022/03/29 04:07:16;;;;;;;15.95;3.97;;;25.10;39.20;;;;;;5084009;28;20113;-53
2022/03/29 04:09:43;;;;;;;11.30;4.22;;;25.10;39.20;;;;;;5080990;28;20119;-53
2022/03/29 04:12:11;;;;;;;4.60;2.83;;;25.10;39.30;;;;;;5080608;28;20036;-55
2022/03/29 04:14:40;;;;;;;9.82;2.70;;;25.10;39.30;;;;;;5079125;28;20048;-55
2022/03/29 04:17:08;;;;;;;5.93;2.72;;;25.10;39.30;;;;;;5078927;28;20829;-54
2022/03/29 04:19:35;;;;;;;8.95;3.83;;;25.10;39.50;;;;;;5072405;28;20131;-55
2022/03/29 04:22:02;;;;;;;5.93;3.47;;;25.10;39.40;;;;;;5069465;28;20040;-55
2022/03/29 04:24:29;;;;;;;6.82;2.90;;;25.00;39.20;;;;;;5077912;28;20122;-53
2022/03/29 04:26:56;;;;;;;5.53;2.63;;;25.10;39.40;;;;;;5079434;28;20032;-51
2022/03/29 04:29:24;;;;;;;8.70;3.50;;;25.00;39.40;;;;;;5076523;28;20091;-51
2022/03/29 04:31:53;;;;;;;5.20;2.97;;;25.00;39.40;;;;;;5078501;28;20128;-47
2022/03/29 04:34:21;;;;;;;6.15;2.75;;;25.10;39.50;;;;;;5077045;28;20148;-48
2022/03/29 04:36:48;;;;;;;4.57;2.45;;;25.20;39.40;;;;;;5083017;28;20101;-51
2022/03/29 04:39:16;;;;;;;4.72;2.47;;;25.20;39.20;;;;;;5080023;28;20043;-52
2022/03/29 04:41:43;;;;;;;7.10;2.72;;;25.20;39.00;;;;;;5080819;28;20051;-49
2022/03/29 04:44:10;;;;;;;5.47;2.35;;;25.20;38.80;;;;;;5075246;28;20568;-54
2022/03/29 04:46:37;;;;;;;4.75;2.30;;;25.20;39.30;;;;;;5082621;28;20536;-54
2022/03/29 04:49:05;;;;;;;5.38;2.47;;;25.30;38.70;;;;;;5080022;28;20055;-55
2022/03/29 04:51:35;;;;;;;5.25;2.15;;;25.20;39.10;;;;;;5077450;28;20041;-53
2022/03/29 04:54:02;;;;;;;14.57;3.63;;;25.20;38.30;;;;;;5078997;28;20059;-50
2022/03/29 04:56:29;;;;;;;11.23;2.63;;;25.20;38.20;;;;;;5076266;28;20036;-50
2022/03/29 04:58:57;;;;;;;6.20;2.15;;;25.20;38.10;;;;;;5074164;28;20120;-52
2022/03/29 05:01:24;;;;;;;6.25;2.75;;;25.30;38.10;;;;;;5078466;28;20036;-54
2022/03/29 05:03:51;;;;;;;8.50;3.30;;;25.20;37.80;;;;;;5070082;28;20058;-54
2022/03/29 05:06:19;;;;;;;10.45;2.97;;;25.20;37.70;;;;;;5076708;28;20534;-57
2022/03/29 05:08:46;;;;;;;4.38;2.42;;;25.20;37.50;;;;;;5075986;28;20052;-55
2022/03/29 05:11:13;;;;;;;4.32;2.60;;;25.20;37.40;;;;;;5071550;28;20223;-56
2022/03/29 05:13:41;;;;;;;6.35;1.98;;;25.20;37.30;;;;;;5076552;28;20089;-56
2022/03/29 05:16:08;;;;;;;6.97;2.60;;;25.20;37.20;;;;;;5069408;28;20048;-55
2022/03/29 05:18:35;;;;;;;6.20;2.28;;;25.20;37.20;;;;;;5067679;28;20117;-53
2022/03/29 05:21:03;;;;;;;9.68;2.38;;;25.20;37.10;;;;;;5078288;28;20036;-54
2022/03/29 05:23:31;;;;;;;3.47;1.88;;;25.20;37.00;;;;;;5067215;28;20052;-52
2022/03/29 05:25:59;;;;;;;4.75;2.60;;;25.20;37.00;;;;;;5074543;28;20086;-56
2022/03/29 05:28:26;;;;;;;3.92;2.15;;;25.20;36.90;;;;;;5081011;28;20056;-53
2022/03/29 05:30:53;;;;;;;4.93;2.38;;;25.20;36.70;;;;;;5082877;28;20648;-54
2022/03/29 05:33:20;;;;;;;4.93;1.73;;;25.20;36.60;;;;;;5078518;28;20048;-55
2022/03/29 05:35:48;;;;;;;3.70;1.77;;;25.20;36.70;;;;;;5077762;28;20097;-55
2022/03/29 05:38:15;;;;;;;3.25;2.15;;;25.20;36.70;;;;;;5072913;28;20044;-54
2022/03/29 05:40:43;;;;;;;4.63;1.92;;;25.20;36.70;;;;;;5073656;28;20381;-54
2022/03/29 05:43:12;;;;;;;4.18;1.52;;;25.20;36.60;;;;;;5079476;28;20135;-55
2022/03/29 05:45:39;;;;;;;3.75;1.83;;;25.10;36.40;;;;;;5080358;28;20046;-55
2022/03/29 05:50:53;;;;;;;3.30;1.77;;;25.10;36.10;;;;;;5073709;28;20165;-58
2022/03/29 05:53:20;;;;;;;4.30;2.15;;;25.10;36.00;;;;;;5065173;28;20538;-55
2022/03/29 05:55:49;;;;;;;3.78;2.17;;;25.10;35.90;;;;;;5074965;28;20036;-55
2022/03/29 05:58:17;;;;;;;3.08;2.00;;;25.10;35.90;;;;;;5079145;28;20809;-55
2022/03/29 06:00:45;;;;;;;3.35;1.77;;;25.10;35.80;;;;;;5081765;28;20553;-53
2022/03/29 06:03:12;;;;;;;7.40;2.42;;;25.10;35.70;;;;;;5071071;28;20497;-54
2022/03/29 06:05:42;;;;;;;4.07;1.48;;;25.20;35.90;;;;;;5074783;28;20881;-55
2022/03/29 06:08:11;;;;;;;5.00;2.25;;;25.10;35.80;;;;;;5080356;28;20040;-55
2022/03/29 06:10:38;;;;;;;6.30;3.10;;;25.10;35.70;;;;;;5079629;28;20090;-55
2022/03/29 06:13:08;;;;;;;5.50;2.47;;;25.10;35.60;;;;;;5077655;28;20132;-55
2022/03/29 06:15:36;;;;;;;5.25;2.15;;;25.10;35.60;;;;;;5079873;28;20060;-53
2022/03/29 06:18:04;;;;;;;5.38;2.70;;;25.10;35.50;;;;;;5083001;28;20040;-54
2022/03/29 06:20:31;;;;;;;7.28;2.47;;;25.10;35.40;;;;;;5079557;28;20032;-51
2022/03/29 06:22:59;;;;;;;5.75;2.58;;;25.10;35.40;;;;;;5079815;28;20449;-54
2022/03/29 06:25:26;;;;;;;2.00;1.80;;;25.10;36.00;;;;;;5072870;28;20048;-49
2022/03/29 06:27:54;;;;;;;8.05;1.98;;;25.10;35.30;;;;;;5078221;28;20131;-51
2022/03/29 06:30:23;;;;;;;8.43;2.53;;;25.10;35.30;;;;;;5080692;28;20060;-51
2022/03/29 06:32:52;;;;;;;4.22;2.05;;;25.10;35.20;;;;;;5077672;28;20137;-51
2022/03/29 06:35:21;;;;;;;2.25;2.05;;;25.10;35.20;;;;;;5073584;28;20036;-51
2022/03/29 06:37:50;;;;;;;4.18;1.92;;;25.10;35.10;;;;;;5069174;28;20406;-50
2022/03/29 06:40:17;;;;;;;3.67;2.67;;;25.10;35.10;;;;;;5070839;28;20127;-56
2022/03/29 06:42:44;;;;;;;6.03;2.70;;;25.10;35.00;;;;;;5085780;28;20055;-53
2022/03/29 06:45:12;;;;;;;3.20;2.22;;;25.10;35.00;;;;;;5073099;28;20045;-52
2022/03/29 06:47:41;;;;;;;4.47;2.47;;;25.10;35.00;;;;;;5075824;28;20752;-53
2022/03/29 06:50:10;;;;;;;5.22;2.65;;;25.10;34.90;;;;;;5076914;28;20390;-54
2022/03/29 06:52:37;;;;;;;5.47;2.45;;;25.10;34.90;;;;;;5078687;28;20052;-52
2022/03/29 06:55:06;;;;;;;2.97;2.42;;;25.10;34.90;;;;;;5074289;28;20127;-56
2022/03/29 06:57:34;;;;;;;1.67;1.38;;;25.10;34.90;;;;;;5076909;28;20489;-51
2022/03/29 07:00:02;;;;;;;7.03;2.28;;;25.10;34.90;;;;;;5073833;28;20042;-53
2022/03/29 07:02:29;;;;;;;4.72;2.50;;;25.10;34.90;;;;;;5072965;28;20051;-53
2022/03/29 07:04:59;;;;;;;8.65;3.30;;;25.10;34.80;;;;;;5072173;28;20575;-66
2022/03/29 07:07:27;;;;;;;5.30;2.20;;;25.10;34.80;;;;;;5073413;28;20036;-68
2022/03/29 07:12:50;;;;;;;7.40;3.08;;;25.10;35.00;;;;;;5079267;28;20526;-59
2022/03/29 07:15:19;;;;;;;4.28;2.75;;;25.20;34.80;;;;;;5080386;28;20040;-59
2022/03/29 07:17:47;;;;;;;4.95;2.35;;;25.30;34.70;;;;;;5079497;28;20473;-59
2022/03/29 07:20:19;;;;;;;5.63;3.45;;;25.40;34.50;;;;;;5079887;28;20047;-58
2022/03/29 07:22:47;;;;;;;5.45;1.98;;;25.50;34.30;;;;;;5078035;28;21058;-59
2022/03/29 07:25:16;;;;;;;4.50;2.58;;;25.60;34.10;;;;;;5082010;28;20127;-57
2022/03/29 07:27:44;;;;;;;7.32;2.42;;;25.70;34.00;;;;;;5088715;28;20036;-70
2022/03/29 07:30:12;;;;;;;5.35;3.53;;;25.70;33.90;;;;;;5073668;28;20496;-64
2022/03/29 07:32:47;;;;;;;7.55;3.10;;;25.90;34.10;;;;;;5072081;28;20275;-59
2022/03/29 07:35:18;;;;;;;7.53;3.30;;;26.00;34.20;;;;;;5086184;28;20044;-62
2022/03/29 07:37:47;;;;;;;8.05;2.78;;;26.10;34.20;;;;;;5080895;28;20134;-67
2022/03/29 07:40:16;;;;;;;6.07;2.97;;;26.20;34.10;;;;;;5072282;28;20061;-62
2022/03/29 07:42:44;;;;;;;8.07;2.80;;;26.30;34.10;;;;;;5084377;28;20071;-62
2022/03/29 07:45:12;;;;;;;4.93;3.00;;;26.40;34.00;;;;;;5085273;28;20043;-62
2022/03/29 07:47:41;;;;;;;5.15;2.45;;;26.50;33.90;;;;;;5079245;28;20105;-73
2022/03/29 07:50:11;;;;;;;4.80;2.17;;;26.60;33.80;;;;;;5086497;28;20474;-63
2022/03/29 07:52:42;;;;;;;10.15;3.35;;;26.70;33.60;;;;;;5079248;28;20047;-65
2022/03/29 07:55:11;;;;;;;4.72;2.58;;;26.90;33.60;;;;;;5077474;28;20120;-59
2022/03/29 07:57:39;;;;;;;8.07;3.08;;;26.90;33.40;;;;;;5080160;28;20052;-63
2022/03/29 08:02:55;;;;;;;8.32;3.33;;;27.20;33.20;;;;;;5069637;28;20707;-66
2022/03/29 08:05:22;;;;;;;6.43;3.35;;;27.30;33.10;;;;;;5077180;28;20040;-65
2022/03/29 08:07:51;;;;;;;4.63;3.03;;;27.30;32.90;;;;;;5084924;28;20044;-61
2022/03/29 08:10:19;;;;;;;3.55;2.78;;;27.40;32.80;;;;;;5076554;28;20040;-67
2022/03/29 08:12:47;;;;;;;14.73;4.88;;;27.50;32.60;;;;;;5088907;28;20044;-72
2022/03/29 08:15:14;;;;;;;7.28;4.07;;;27.60;32.50;;;;;;5079455;28;20036;-65
2022/03/29 08:17:42;;;;;;;6.82;4.10;;;27.70;32.40;;;;;;5080034;28;20055;-66
2022/03/29 08:20:11;;;;;;;6.45;3.97;;;27.70;32.40;;;;;;5083854;28;20048;-73
2022/03/29 08:22:44;;;;;;;7.03;3.40;;;27.80;32.40;;;;;;5086487;28;20126;-69
2022/03/29 08:25:14;;;;;;;7.15;3.58;;;27.80;32.30;;;;;;5088456;28;20040;-68
2022/03/29 08:27:42;;;;;;;6.78;4.63;;;27.90;32.20;;;;;;5071685;28;20051;-71
2022/03/29 08:30:11;;;;;;;7.60;4.15;;;27.90;32.20;;;;;;5071577;28;20130;-68
2022/03/29 08:32:39;;;;;;;9.77;5.35;;;27.90;32.20;;;;;;5068334;28;21007;-72
2022/03/29 08:35:10;;;;;;;9.60;5.47;;;27.90;32.10;;;;;;5077131;28;20043;-67
2022/03/29 08:37:39;;;;;;;9.90;5.10;;;28.00;32.20;;;;;;5079180;28;20129;-74
2022/03/29 08:40:11;;;;;;;9.60;5.07;;;28.00;32.10;;;;;;5076338;28;20101;-63
2022/03/29 08:42:42;;;;;;;6.97;3.80;;;28.10;32.20;;;;;;5080275;28;20051;-60
2022/03/29 08:45:11;;;;;;;7.45;4.40;;;28.00;32.10;;;;;;5071206;28;20143;-62
2022/03/29 08:47:40;;;;;;;10.07;4.43;;;28.10;32.20;;;;;;5079662;28;20047;-60
2022/03/29 08:50:10;;;;;;;7.05;5.18;;;28.10;32.20;;;;;;5074553;28;20036;-61
2022/03/29 08:52:39;;;;;;;10.43;4.88;;;28.10;32.10;;;;;;5069791;28;20136;-59
2022/03/29 08:55:08;;;;;;;8.07;3.83;;;28.10;32.00;;;;;;5067119;28;20072;-59
2022/03/29 08:57:35;;;;;;;6.80;4.45;;;28.10;31.90;;;;;;5068473;28;20048;-64
2022/03/29 09:00:05;;;;;;;11.98;5.38;;;28.20;31.90;;;;;;5078225;28;20043;-60
2022/03/29 09:02:34;;;;;;;13.30;5.45;;;28.20;32.00;;;;;;5069497;28;20157;-59
2022/03/29 09:05:12;;;;;;;9.82;5.43;;;28.30;32.10;;;;;;5065820;28;20416;-60
2022/03/29 09:07:54;;;;;;;11.18;5.43;;;28.30;32.00;;;;;;5069484;28;20064;-62
2022/03/29 09:10:23;;;;;;;9.48;4.22;;;28.40;32.10;;;;;;5067344;28;27374;-65
2022/03/29 09:12:51;;;;;;;14.43;5.90;;;28.50;32.00;;;;;;5074244;28;20067;-58
2022/03/29 09:15:19;;;;;;;14.98;5.72;;;28.50;32.00;;;;;;5071652;28;20581;-60
2022/03/29 09:17:47;;;;;;;10.38;4.88;;;28.60;32.00;;;;;;5076098;28;20043;-65
2022/03/29 09:20:20;;;;;;;6.45;3.83;;;28.60;31.90;;;;;;5072308;28;20040;-65
2022/03/29 09:22:50;;;;;;;8.55;4.88;;;28.70;32.00;;;;;;5077813;28;20416;-65
2022/03/29 09:25:20;;;;;;;11.20;4.53;;;28.70;31.60;;;;;;5078167;28;20048;-65
2022/03/29 09:27:57;;;;;;;10.07;4.72;;;28.80;31.50;;;;;;5078284;28;20044;-64
2022/03/29 09:30:27;;;;;;;14.77;5.65;;;28.80;31.40;;;;;;5081330;28;20059;-65
2022/03/29 09:33:02;;;;;;;10.27;5.53;;;28.80;31.30;;;;;;5078838;28;20151;-71
2022/03/29 09:35:30;;;;;;;6.93;5.03;;;28.80;31.30;;;;;;5074918;28;20507;-70
2022/03/29 09:37:59;;;;;;;9.73;5.93;;;28.90;31.20;;;;;;5074667;28;20043;-67
2022/03/29 09:40:35;;;;;;;12.68;5.93;;;28.90;31.10;;;;;;5076525;28;20036;-69
2022/03/29 09:43:23;;;;;;;10.30;5.85;;;28.90;31.00;;;;;;5070390;28;20075;-67
2022/03/29 09:45:55;;;;;;;10.43;6.20;;;28.90;31.10;;;;;;5074013;28;20048;-67
2022/03/29 09:48:28;;;;;;;12.95;5.05;;;28.90;31.10;;;;;;5076937;28;20040;-68
2022/03/29 09:51:16;;;;;;;10.38;5.07;;;28.90;31.10;;;;;;5077309;28;20048;-67
2022/03/29 09:53:46;;;;;;;16.50;6.43;;;28.90;31.10;;;;;;5077873;28;20052;-67
2022/03/29 09:56:19;;;;;;;16.48;6.60;;;28.90;31.10;;;;;;5078597;28;20131;-66
2022/03/29 09:58:47;;;;;;;16.30;6.65;;;28.90;31.10;;;;;;5069149;28;20032;-67
2022/03/29 10:01:26;;;;;;;12.32;5.88;;;28.90;31.10;;;;;;5067231;28;20032;-67
2022/03/29 10:03:54;;;;;;;16.58;7.47;;;28.90;31.10;;;;;;5078154;28;20057;-67
2022/03/29 10:06:23;;;;;;;13.68;6.95;;;28.90;31.00;;;;;;5070596;28;20059;-66
2022/03/29 10:11:37;;;;;;;10.13;5.95;;;28.90;30.90;;;;;;5071149;28;20064;-67
2022/03/29 10:14:06;;;;;;;14.35;6.70;;;28.90;30.90;;;;;;5075460;28;20525;-67
2022/03/29 10:16:35;;;;;;;14.77;7.35;;;28.90;30.90;;;;;;5070569;28;20047;-67
2022/03/29 10:19:03;;;;;;;13.73;7.30;;;28.90;30.80;;;;;;5080993;28;20044;-67
2022/03/29 10:21:30;;;;;;;14.70;6.72;;;28.90;30.80;;;;;;5068903;28;20049;-67
2022/03/29 10:24:00;;;;;;;10.30;6.32;;;28.90;30.80;;;;;;5073267;28;20045;-69
2022/03/29 10:26:28;;;;;;;11.75;5.95;;;29.00;30.90;;;;;;5078296;28;20032;-68
2022/03/29 10:28:55;;;;;;;12.10;7.22;;;28.90;30.90;;;;;;5079154;28;20590;-68
2022/03/29 10:31:33;;;;;;;15.00;7.30;;;28.90;31.40;;;;;;5067457;28;20194;-69
2022/03/29 10:34:17;;;;;;;20.35;6.43;;;29.00;30.90;;;;;;5072776;28;20052;-68
2022/03/29 10:37:18;;;;;;;19.65;5.95;;;29.00;30.80;;;;;;5076516;28;20125;-69
2022/03/29 10:39:51;;;;;;;19.02;7.95;;;29.00;30.80;;;;;;5003923;28;20042;-69
2022/03/29 10:42:33;;;;;;;16.60;8.50;;;29.00;30.80;;;;;;5003041;28;20081;-69
2022/03/29 10:45:09;;;;;;;19.95;8.02;;;29.00;30.60;;;;;;5006451;28;20058;-68
2022/03/29 10:47:37;;;;;;;15.52;7.22;;;29.10;30.80;;;;;;5001209;28;20069;-68
2022/03/29 10:50:07;;;;;;;15.85;8.77;;;29.00;30.70;;;;;;5000500;28;20201;-69
2022/03/29 10:52:39;;;;;;;16.05;6.88;;;29.10;30.70;;;;;;4987694;28;20100;-69
2022/03/29 10:55:27;;;;;;;16.20;7.05;;;29.10;30.60;;;;;;5002926;28;20543;-70
2022/03/29 10:58:06;;;;;;;18.35;7.72;;;29.10;30.60;;;;;;5002118;28;20168;-68
2022/03/29 11:00:34;;;;;;;17.58;6.93;;;29.10;30.70;;;;;;5000448;28;20049;-68
2022/03/29 11:03:13;;;;;;;13.90;6.65;;;29.10;30.70;;;;;;5001523;28;20053;-68
2022/03/29 11:06:07;;;;;;;19.63;7.63;;;29.20;30.80;;;;;;4994555;28;20517;-66
2022/03/29 11:08:37;;;;;;;11.25;6.45;;;29.20;30.70;;;;;;5001163;28;20056;-67
2022/03/29 11:11:05;;;;;;;12.00;6.93;;;29.20;30.80;;;;;;5049632;28;20508;-69
2022/03/29 11:13:37;;;;;;;12.32;6.22;;;29.20;30.80;;;;;;5077213;28;20055;-68
2022/03/29 11:16:30;;;;;;;14.00;5.60;;;29.20;30.70;;;;;;5069880;28;20051;-68
2022/03/29 11:18:58;;;;;;;11.38;6.85;;;29.20;30.60;;;;;;5076735;28;20036;-69
2022/03/29 11:21:40;;;;;;;13.77;6.53;;;29.20;30.60;;;;;;5082689;28;20132;-67
2022/03/29 11:24:13;;;;;;;13.25;6.65;;;29.30;30.40;;;;;;5080736;28;20580;-67
2022/03/29 11:26:58;;;;;;;12.93;8.50;;;29.20;30.40;;;;;;5078395;28;20048;-70
2022/03/29 11:29:26;;;;;;;11.93;6.35;;;29.30;30.50;;;;;;5078551;28;20047;-65
2022/03/29 11:31:55;;;;;;;15.48;7.65;;;29.30;30.40;;;;;;5079379;28;20040;-68
2022/03/29 11:34:22;;;;;;;17.85;7.60;;;29.30;30.30;;;;;;5079582;28;20066;-68
2022/03/29 11:36:51;;;;;;;14.32;8.18;;;29.30;30.20;;;;;;5083380;28;20458;-68
2022/03/29 11:39:23;;;;;;;19.08;7.47;;;29.30;30.20;;;;;;5083060;28;20123;-68
2022/03/29 11:41:53;;;;;;;13.15;7.05;;;29.30;30.10;;;;;;5077386;28;20097;-68
2022/03/29 11:44:23;;;;;;;18.08;7.18;;;29.30;30.00;;;;;;5080995;28;20048;-69
2022/03/29 11:46:53;;;;;;;17.80;7.35;;;29.30;30.00;;;;;;5078474;28;20543;-68
2022/03/29 11:49:22;;;;;;;14.63;7.05;;;29.30;30.00;;;;;;5079021;28;20044;-68
2022/03/29 11:52:07;;;;;;;10.65;6.20;;;29.30;30.00;;;;;;5079454;28;20056;-67
2022/03/29 11:54:40;;;;;;;10.68;5.97;;;29.40;30.00;;;;;;5070700;28;20052;-66
2022/03/29 11:57:18;;;;;;;13.90;7.63;;;29.30;30.00;;;;;;5070928;28;20040;-66
2022/03/29 11:59:47;;;;;;;23.42;7.05;;;29.40;30.30;;;;;;5077938;28;20047;-62
2022/03/29 12:02:14;;;;;;;8.32;5.60;;;29.40;30.40;;;;;;5081586;28;20043;-63
2022/03/29 12:04:43;;;;;;;10.10;6.50;;;29.50;30.60;;;;;;5080011;28;20054;-64
2022/03/29 12:07:12;;;;;;;13.40;6.20;;;29.50;30.70;;;;;;5074112;28;20800;-66
2022/03/29 12:09:40;;;;;;;10.05;5.70;;;29.50;30.70;;;;;;5079613;28;20177;-64
2022/03/29 12:12:10;;;;;;;10.57;5.65;;;29.60;30.80;;;;;;5072291;28;20126;-66
2022/03/29 12:14:37;;;;;;;13.38;5.15;;;29.60;30.70;;;;;;5073226;28;20509;-65
2022/03/29 12:17:08;;;;;;;13.05;5.80;;;29.60;30.70;;;;;;5075786;28;20155;-58
2022/03/29 12:19:38;;;;;;;8.68;5.18;;;29.70;30.80;;;;;;5068311;28;20048;-62
2022/03/29 12:22:07;;;;;;;6.38;4.88;;;29.80;30.80;;;;;;5066014;28;20051;-60
2022/03/29 12:24:37;;;;;;;11.55;6.43;;;29.80;30.70;;;;;;5081112;28;20048;-64
2022/03/29 12:27:07;;;;;;;12.05;5.40;;;29.80;30.70;;;;;;5082560;28;20123;-61
2022/03/29 12:29:41;;;;;;;12.93;5.18;;;29.80;30.60;;;;;;5072532;28;20050;-68
2022/03/29 12:32:09;;;;;;;11.02;5.28;;;29.90;30.60;;;;;;5084414;28;20522;-66
2022/03/29 12:34:37;;;;;;;9.75;5.32;;;29.90;30.50;;;;;;5077678;28;20047;-64
2022/03/29 12:37:10;;;;;;;14.60;6.18;;;30.00;30.30;;;;;;5078200;28;20048;-64
2022/03/29 12:39:41;;;;;;;16.70;5.43;;;30.00;30.30;;;;;;5085155;28;20036;-64
2022/03/29 12:42:11;;;;;;;9.52;3.70;;;30.00;30.30;;;;;;5086574;28;20058;-64
2022/03/29 12:44:43;;;;;;;8.98;4.63;;;30.00;30.20;;;;;;5083457;28;20135;-66
2022/03/29 12:47:11;;;;;;;17.25;5.82;;;30.00;30.10;;;;;;5084247;28;20134;-65
2022/03/29 12:49:40;;;;;;;9.55;5.45;;;30.00;30.10;;;;;;5083652;28;20131;-66
2022/03/29 12:52:10;;;;;;;8.73;4.82;;;29.90;30.00;;;;;;5083927;28;20148;-65
2022/03/29 12:54:40;;;;;;;12.43;4.70;;;29.90;30.00;;;;;;5085193;28;20138;-65
2022/03/29 12:57:10;;;;;;;10.63;4.93;;;29.90;30.00;;;;;;5078261;28;20143;-65
2022/03/29 12:59:40;;;;;;;7.05;4.05;;;29.90;30.10;;;;;;5077026;28;20047;-66
2022/03/29 13:02:13;;;;;;;7.63;3.20;;;29.90;30.30;;;;;;5073099;28;20131;-63
2022/03/29 13:04:42;;;;;;;6.85;3.85;;;29.90;30.50;;;;;;5078637;28;20048;-65
2022/03/29 13:07:11;;;;;;;4.90;2.80;;;29.80;30.50;;;;;;5082689;28;20484;-63